createdAt,value
2022-12-15T00:01:42.322Z,97365.34
2022-12-15T00:04:28.138Z,97373.91
2022-12-15T00:07:13.503Z,97376.88
2022-12-15T00:09:58.830Z,97378.78
2022-12-15T00:12:44.539Z,97380.91
2022-12-15T00:15:29.916Z,97375.78
2022-12-15T00:18:15.537Z,97372.38
2022-12-15T00:21:00.846Z,97382.81
2022-12-15T00:23:46.612Z,97378.34
2022-12-15T00:26:31.867Z,97375.38
2022-12-15T00:29:17.402Z,97386.75
2022-12-15T00:32:02.835Z,97386.88
2022-12-15T00:34:48.522Z,97387.06
2022-12-15T00:37:33.918Z,97388.59
2022-12-15T00:40:04.341Z,97395.81
2022-12-15T00:42:31.142Z,97398.69
2022-12-15T00:44:58.368Z,97402.28
2022-12-15T00:47:25.246Z,97409.31
2022-12-15T00:50:10.818Z,97412.94
2022-12-15T00:52:56.214Z,97414.66
2022-12-15T00:55:41.653Z,97413.47
2022-12-15T00:58:26.954Z,97419.44
2022-12-15T01:01:12.378Z,97420.63
2022-12-15T01:03:57.768Z,97433.06
2022-12-15T01:06:43.574Z,97426.78
2022-12-15T01:09:29.310Z,97429.13
2022-12-15T01:12:15.105Z,97425.84
2022-12-15T01:15:00.630Z,97432.84
2022-12-15T01:17:46.315Z,97428.28
2022-12-15T01:20:19.016Z,97441.16
2022-12-15T01:22:46.619Z,97445.50
2022-12-15T01:25:13.563Z,97454.25
2022-12-15T01:27:40.872Z,97461.47
2022-12-15T01:30:08.209Z,97451.38
2022-12-15T01:32:35.229Z,97453.09
2022-12-15T01:35:02.768Z,97456.59
2022-12-15T01:37:29.772Z,97457.56
2022-12-15T01:40:14.916Z,97466.59
2022-12-15T01:42:41.952Z,97469.06
2022-12-15T01:45:24.100Z,97472.38
2022-12-15T01:47:51.835Z,97473.44
2022-12-15T01:50:18.579Z,97467.25
2022-12-15T01:52:45.694Z,97469.50
2022-12-15T01:55:17.064Z,97478.75
2022-12-15T01:57:44.264Z,97477.59
2022-12-15T02:00:11.328Z,97479.50
2022-12-15T02:02:40.397Z,97481.53
2022-12-15T02:05:07.739Z,97479.59
2022-12-15T02:07:34.782Z,97478.53
2022-12-15T02:10:02.124Z,97477.50
2022-12-15T02:13:03.275Z,97477.88
2022-12-15T02:15:43.979Z,97484.44
2022-12-15T02:18:18.066Z,97482.06
2022-12-15T02:20:53.425Z,97495.19
2022-12-15T02:23:49.135Z,97494.19
2022-12-15T02:26:21.967Z,97495.56
2022-12-15T02:28:58.069Z,97501.44
2022-12-15T02:31:54.648Z,97496.03
2022-12-15T02:34:40.011Z,97504.31
2022-12-15T02:37:32.812Z,97507.59
2022-12-15T02:39:59.987Z,97510.06
2022-12-15T02:42:27.096Z,97509.13
2022-12-15T02:44:59.793Z,97515.41
2022-12-15T02:48:25.303Z,97528.72
2022-12-15T02:51:11.675Z,97526.25
2022-12-15T02:54:00.370Z,97529.97
2022-12-15T02:56:34.290Z,97533.47
2022-12-15T02:59:03.384Z,97543.84
2022-12-15T03:01:55.435Z,97529.44
2022-12-15T03:04:22.539Z,97540.19
2022-12-15T03:07:00.931Z,97549.06
2022-12-15T03:09:28.347Z,97547.44
2022-12-15T03:11:55.374Z,97546.41
2022-12-15T03:14:22.182Z,97547.25
2022-12-15T03:16:49.299Z,97555.88
2022-12-15T03:19:16.073Z,97559.59
2022-12-15T03:21:43.090Z,97558.53
2022-12-15T03:24:09.894Z,97563.13
2022-12-15T03:26:36.987Z,97566.41
2022-12-15T03:29:03.754Z,97568.44
2022-12-15T03:31:30.883Z,97575.56
2022-12-15T03:33:57.719Z,97574.31
2022-12-15T03:36:24.769Z,97580.03
2022-12-15T03:38:51.482Z,97584.78
2022-12-15T03:41:19.336Z,97583.38
2022-12-15T03:43:46.517Z,97590.56
2022-12-15T03:46:17.031Z,97591.13
2022-12-15T03:48:43.841Z,97586.97
2022-12-15T03:51:11.013Z,97593.44
2022-12-15T03:53:37.726Z,97603.69
2022-12-15T03:56:04.973Z,97608.38
2022-12-15T03:58:31.695Z,97607.41
2022-12-15T04:00:59.023Z,97609.41
2022-12-15T04:03:25.877Z,97616.25
2022-12-15T04:05:52.893Z,97621.28
2022-12-15T04:08:26.835Z,97627.34
2022-12-15T04:10:53.949Z,97628.63
2022-12-15T04:13:20.661Z,97627.66
2022-12-15T04:15:47.733Z,97626.91
2022-12-15T04:18:14.501Z,97634.88
2022-12-15T04:20:41.618Z,97631.16
2022-12-15T04:23:08.459Z,97632.22
2022-12-15T04:25:54.056Z,97636.09
2022-12-15T04:28:39.179Z,97638.09
2022-12-15T04:31:32.736Z,97635.72
2022-12-15T04:34:23.159Z,97641.25
2022-12-15T04:37:10.564Z,97639.47
2022-12-15T04:39:56.965Z,97641.94
2022-12-15T04:42:42.564Z,97646.47
2022-12-15T04:45:28.013Z,97644.47
2022-12-15T04:48:13.569Z,97660.66
2022-12-15T04:50:58.988Z,97665.00
2022-12-15T04:53:44.546Z,97675.47
2022-12-15T04:56:30.848Z,97674.63
2022-12-15T04:59:16.676Z,97678.41
2022-12-15T05:02:02.170Z,97693.34
2022-12-15T05:04:48.062Z,97692.38
2022-12-15T05:07:33.299Z,97699.34
2022-12-15T05:10:18.646Z,97698.47
2022-12-15T05:13:04.119Z,97697.69
2022-12-15T05:15:51.026Z,97694.75
2022-12-15T05:18:36.835Z,97698.47
2022-12-15T05:21:22.830Z,97702.00
2022-12-15T05:24:08.133Z,97709.88
2022-12-15T05:26:53.907Z,97716.34
2022-12-15T05:29:39.736Z,97723.09
2022-12-15T05:32:07.925Z,97732.22
2022-12-15T05:34:35.570Z,97731.28
2022-12-15T05:37:03.589Z,97741.94
2022-12-15T05:39:30.394Z,97749.72
2022-12-15T05:41:57.495Z,97755.34
2022-12-15T05:44:25.067Z,97755.25
2022-12-15T05:46:52.257Z,97753.50
2022-12-15T05:49:19.158Z,97765.97
2022-12-15T05:51:47.050Z,97765.88
2022-12-15T05:54:17.976Z,97766.34
2022-12-15T05:56:45.250Z,97784.69
2022-12-15T05:59:12.184Z,97778.22
2022-12-15T06:01:39.505Z,97779.06
2022-12-15T06:04:07.445Z,97794.72
2022-12-15T06:06:34.512Z,97791.81
2022-12-15T06:09:01.219Z,97790.41
2022-12-15T06:11:28.453Z,97795.56
2022-12-15T06:13:55.511Z,97803.06
2022-12-15T06:16:23.515Z,97793.75
2022-12-15T06:18:52.818Z,97792.69
2022-12-15T06:21:32.054Z,97803.53
2022-12-15T06:23:58.946Z,97806.38
2022-12-15T06:26:27.899Z,97801.63
2022-12-15T06:28:55.869Z,97809.72
2022-12-15T06:31:23.207Z,97820.19
2022-12-15T06:33:51.647Z,97815.91
2022-12-15T06:36:20.714Z,97830.91
2022-12-15T06:38:50.178Z,97836.34
2022-12-15T06:41:18.805Z,97843.66
2022-12-15T06:43:52.509Z,97841.09
2022-12-15T06:46:19.811Z,97845.38
2022-12-15T06:48:46.813Z,97844.25
2022-12-15T06:51:17.140Z,97852.50
2022-12-15T06:53:52.628Z,97874.69
2022-12-15T06:56:33.171Z,97883.34
2022-12-15T06:59:01.873Z,97890.47
2022-12-15T07:01:29.492Z,97891.03
2022-12-15T07:03:56.987Z,97900.16
2022-12-15T07:06:24.296Z,97892.25
2022-12-15T07:08:52.966Z,97901.97
2022-12-15T07:11:21.128Z,97894.75
2022-12-15T07:13:54.349Z,97895.97
2022-12-15T07:16:22.241Z,97905.28
2022-12-15T07:18:49.202Z,97911.88
2022-12-15T07:21:16.259Z,97918.31
2022-12-15T07:23:59.317Z,97927.06
2022-12-15T07:26:27.148Z,97931.16
2022-12-15T07:28:54.373Z,97933.84
2022-12-15T07:31:22.004Z,97931.16
2022-12-15T07:33:49.187Z,97925.09
2022-12-15T07:36:16.317Z,97919.75
2022-12-15T07:38:45.566Z,97935.75
2022-12-15T07:41:18.625Z,97934.75
2022-12-15T07:43:46.616Z,97938.66
2022-12-15T07:46:13.932Z,97931.44
2022-12-15T07:48:40.701Z,97947.31
2022-12-15T07:51:15.323Z,97952.47
2022-12-15T07:53:44.130Z,97964.91
2022-12-15T07:56:11.158Z,97965.69
2022-12-15T07:58:38.310Z,97971.28
2022-12-15T08:01:06.871Z,97981.84
2022-12-15T08:03:34.633Z,97979.84
2022-12-15T08:06:10.208Z,97978.34
2022-12-15T08:08:37.246Z,97992.50
2022-12-15T08:11:05.640Z,97996.69
2022-12-15T08:14:01.299Z,98002.19
2022-12-15T08:16:21.061Z,98002.00
2022-12-15T08:18:48.944Z,98004.59
2022-12-15T08:21:16.201Z,98008.31
2022-12-15T08:23:42.995Z,98004.84
2022-12-15T08:26:15.112Z,98002.09
2022-12-15T08:28:42.186Z,98012.84
2022-12-15T08:31:18.043Z,98004.66
2022-12-15T08:33:45.529Z,98007.50
2022-12-15T08:36:13.808Z,98022.56
2022-12-15T08:38:41.049Z,98021.69
2022-12-15T08:41:19.763Z,98023.41
2022-12-15T08:43:48.985Z,98025.31
2022-12-15T08:46:17.611Z,98019.81
2022-12-15T08:48:44.489Z,98018.16
2022-12-15T08:51:12.120Z,98016.28
2022-12-15T08:53:38.985Z,98016.38
2022-12-15T08:56:07.662Z,98032.19
2022-12-15T08:58:34.465Z,98026.94
2022-12-15T09:01:02.680Z,98027.78
2022-12-15T09:03:30.116Z,98029.69
2022-12-15T09:06:22.149Z,98029.78
2022-12-15T09:08:50.260Z,98038.34
2022-12-15T09:11:17.907Z,98048.16
2022-12-15T09:13:44.746Z,98032.34
2022-12-15T09:16:14.583Z,98044.63
2022-12-15T09:18:42.992Z,98044.53
2022-12-15T09:21:11.280Z,98051.59
2022-12-15T09:23:38.282Z,98054.25
2022-12-15T09:26:06.226Z,98051.50
2022-12-15T09:28:33.135Z,98064.81
2022-12-15T09:31:14.940Z,98061.28
2022-12-15T09:33:41.912Z,98060.50
2022-12-15T09:36:09.367Z,98054.25
2022-12-15T09:38:38.251Z,98043.41
2022-12-15T09:41:15.098Z,98048.91
2022-12-15T09:43:51.083Z,98060.41
2022-12-15T09:47:06.394Z,98036.63
2022-12-15T09:49:42.599Z,98040.75
2022-12-15T09:52:29.492Z,98056.72
2022-12-15T09:54:57.167Z,98065.66
2022-12-15T09:57:54.428Z,98070.91
2022-12-15T10:00:25.804Z,98065.50
2022-12-15T10:03:11.467Z,98073.75
2022-12-15T10:08:50.970Z,98069.34
2022-12-15T10:11:40.309Z,98077.34
2022-12-15T10:14:19.546Z,98050.63
2022-12-15T10:17:05.694Z,98048.03
2022-12-15T10:19:50.063Z,98043.59
2022-12-15T10:22:21.865Z,98042.44
2022-12-15T10:28:00.341Z,98040.66
2022-12-15T10:30:27.502Z,98048.53
2022-12-15T10:33:03.270Z,98058.09
2022-12-15T10:35:31.369Z,98059.09
2022-12-15T10:37:59.987Z,98062.56
2022-12-15T10:40:50.434Z,98059.97
2022-12-15T10:43:37.902Z,98054.84
2022-12-15T10:46:18.813Z,98054.75
2022-12-15T10:48:50.116Z,98053.88
2022-12-15T10:51:18.476Z,98058.25
2022-12-15T10:54:00.465Z,98062.66
2022-12-15T10:56:33.245Z,98068.91
2022-12-15T10:59:21.145Z,98060.06
2022-12-15T11:01:48.599Z,98075.97
2022-12-15T11:04:31.634Z,98079.56
2022-12-15T11:06:59.873Z,98080.50
2022-12-15T11:09:37.183Z,98083.16
2022-12-15T11:12:39.368Z,98085.75
2022-12-15T11:15:21.349Z,98090.22
2022-12-15T11:18:02.857Z,98083.97
2022-12-15T11:20:34.689Z,98076.72
2022-12-15T11:23:19.591Z,98085.66
2022-12-15T11:25:49.387Z,98092.97
2022-12-15T11:28:25.422Z,98097.94
2022-12-15T11:31:06.652Z,98090.13
2022-12-15T11:33:34.254Z,98075.97
2022-12-15T11:36:26.118Z,98089.28
2022-12-15T11:38:58.902Z,98107.84
2022-12-15T11:41:31.937Z,98097.19
2022-12-15T11:44:06.310Z,98097.09
2022-12-15T11:46:42.195Z,98100.53
2022-12-15T11:49:29.055Z,98103.44
2022-12-15T11:52:03.539Z,98106.69
2022-12-15T11:54:33.606Z,98112.13
2022-12-15T11:57:17.752Z,98111.00
2022-12-15T11:59:55.022Z,98104.72
2022-12-15T12:02:37.380Z,98088.16
2022-12-15T12:05:07.564Z,98090.47
2022-12-15T12:07:42.111Z,98087.78
2022-12-15T12:10:18.310Z,98082.66
2022-12-15T12:13:00.155Z,98075.78
2022-12-15T12:15:35.549Z,98074.56
2022-12-15T12:18:07.656Z,98070.47
2022-12-15T12:21:04.302Z,98080.31
2022-12-15T12:23:37.382Z,98079.97
2022-12-15T12:26:10.856Z,98089.00
2022-12-15T12:28:48.774Z,98098.88
2022-12-15T12:31:38.716Z,98109.28
2022-12-15T12:34:50.967Z,98104.97
2022-12-15T12:37:36.050Z,98107.63
2022-12-15T12:40:18.537Z,98107.63
2022-12-15T12:42:53.389Z,98106.63
2022-12-15T12:45:20.475Z,98100.28
2022-12-15T12:47:50.223Z,98097.78
2022-12-15T12:50:21.076Z,98086.94
2022-12-15T12:53:18.546Z,98085.13
2022-12-15T12:55:45.637Z,98086.16
2022-12-15T12:58:32.305Z,98080.56
2022-12-15T13:01:11.426Z,98080.75
2022-12-15T13:03:39.218Z,98075.41
2022-12-15T13:06:21.822Z,98077.06
2022-12-15T13:08:51.508Z,98088.66
2022-12-15T13:11:53.803Z,98084.97
2022-12-15T13:14:25.836Z,98084.16
2022-12-15T13:17:42.293Z,98074.66
2022-12-15T13:20:21.553Z,98083.41
2022-12-15T13:22:48.688Z,98092.38
2022-12-15T13:25:37.685Z,98093.38
2022-12-15T13:28:23.629Z,98094.06
2022-12-15T13:31:13.223Z,98101.19
2022-12-15T13:33:49.295Z,98110.81
2022-12-15T13:36:35.042Z,98113.47
2022-12-15T13:39:02.161Z,98117.19
2022-12-15T13:41:29.218Z,98133.09
2022-12-15T13:43:55.993Z,98136.69
2022-12-15T13:46:27.923Z,98142.19
2022-12-15T13:49:12.397Z,98151.06
2022-12-15T13:51:43.227Z,98149.31
2022-12-15T13:54:24.199Z,98168.66
2022-12-15T13:57:10.069Z,98182.94
2022-12-15T13:59:39.799Z,98185.00
2022-12-15T14:02:26.723Z,98186.53
2022-12-15T14:05:26.358Z,98194.59
2022-12-15T14:07:55.014Z,98189.09
2022-12-15T14:10:38.860Z,98196.34
2022-12-15T14:13:16.248Z,98185.75
2022-12-15T14:15:45.951Z,98195.28
2022-12-15T14:18:28.649Z,98200.78
2022-12-15T14:20:55.561Z,98194.44
2022-12-15T14:24:11.004Z,98195.19
2022-12-15T14:26:31.749Z,98187.28
2022-12-15T14:29:01.222Z,98194.19
2022-12-15T14:31:28.027Z,98189.97
2022-12-15T14:34:22.938Z,98197.03
2022-12-15T14:36:50.528Z,98201.50
2022-12-15T14:39:22.815Z,98209.66
2022-12-15T14:41:50.586Z,98214.31
2022-12-15T14:44:39.707Z,98211.53
2022-12-15T14:47:08.966Z,98213.25
2022-12-15T14:49:41.344Z,98221.38
2022-12-15T14:52:20.290Z,98214.44
2022-12-15T14:54:52.752Z,98211.19
2022-12-15T14:57:41.749Z,98209.78
2022-12-15T15:00:27.695Z,98210.00
2022-12-15T15:03:18.611Z,98206.28
2022-12-15T15:05:47.561Z,98202.94
2022-12-15T15:08:16.053Z,98208.28
2022-12-15T15:10:43.727Z,98222.34
2022-12-15T15:13:40.071Z,98217.03
2022-12-15T15:16:08.421Z,98225.09
2022-12-15T15:18:35.367Z,98223.41
2022-12-15T15:21:06.376Z,98231.47
2022-12-15T15:23:33.407Z,98220.66
2022-12-15T15:26:06.702Z,98212.47
2022-12-15T15:28:40.703Z,98214.53
2022-12-15T15:31:27.570Z,98210.16
2022-12-15T15:33:57.044Z,98209.19
2022-12-15T15:36:36.220Z,98211.19
2022-12-15T15:39:04.718Z,98210.38
2022-12-15T15:41:32.800Z,98200.94
2022-12-15T15:44:00.738Z,98200.75
2022-12-15T15:46:34.904Z,98190.28
2022-12-15T15:49:03.966Z,98176.34
2022-12-15T15:51:31.286Z,98186.16
2022-12-15T15:54:15.166Z,98182.56
2022-12-15T15:56:42.167Z,98168.56
2022-12-15T15:59:13.291Z,98174.13
2022-12-15T16:01:40.720Z,98173.88
2022-12-15T16:04:07.695Z,98162.56
2022-12-15T16:06:34.810Z,98159.00
2022-12-15T16:09:01.545Z,98173.00
2022-12-15T16:11:30.120Z,98172.25
2022-12-15T16:13:56.979Z,98189.19
2022-12-15T16:16:25.974Z,98199.72
2022-12-15T16:18:52.685Z,98204.38
2022-12-15T16:21:19.845Z,98207.84
2022-12-15T16:23:47.067Z,98206.19
2022-12-15T16:26:15.968Z,98203.53
2022-12-15T16:28:43.019Z,98205.94
2022-12-15T16:31:15.587Z,98204.56
2022-12-15T16:33:42.406Z,98198.28
2022-12-15T16:36:13.338Z,98191.06
2022-12-15T16:38:40.735Z,98192.13
2022-12-15T16:41:08.365Z,98188.31
2022-12-15T16:43:39.238Z,98188.41
2022-12-15T16:46:12.432Z,98200.19
2022-12-15T16:48:39.332Z,98193.81
2022-12-15T16:51:07.657Z,98197.28
2022-12-15T16:53:36.801Z,98201.81
2022-12-15T16:56:05.708Z,98196.31
2022-12-15T16:58:35.017Z,98198.19
2022-12-15T17:01:02.284Z,98205.06
2022-12-15T17:03:29.275Z,98200.03
2022-12-15T17:05:58.425Z,98197.28
2022-12-15T17:08:40.159Z,98203.38
2022-12-15T17:11:07.317Z,98216.19
2022-12-15T17:13:45.371Z,98205.34
2022-12-15T17:16:15.675Z,98202.78
2022-12-15T17:18:42.974Z,98196.47
2022-12-15T17:21:26.597Z,98193.72
2022-12-15T17:23:56.980Z,98197.28
2022-12-15T17:26:32.240Z,98199.22
2022-12-15T17:29:01.100Z,98194.69
2022-12-15T17:31:34.821Z,98189.53
2022-12-15T17:34:15.027Z,98187.63
2022-12-15T17:36:42.097Z,98190.38
2022-12-15T17:39:09.760Z,98188.47
2022-12-15T17:41:58.666Z,98189.63
2022-12-15T17:44:36.925Z,98185.81
2022-12-15T17:47:06.417Z,98180.50
2022-12-15T17:49:36.566Z,98199.69
2022-12-15T17:52:28.460Z,98204.16
2022-12-15T17:54:55.721Z,98204.84
2022-12-15T17:57:22.876Z,98209.28
2022-12-15T17:59:50.087Z,98212.84
2022-12-15T18:02:17.322Z,98212.75
2022-12-15T18:04:44.365Z,98218.00
2022-12-15T18:07:21.691Z,98223.41
2022-12-15T18:09:48.956Z,98223.31
2022-12-15T18:12:23.356Z,98215.22
2022-12-15T18:14:50.199Z,98215.13
2022-12-15T18:17:17.260Z,98220.47
2022-12-15T18:19:44.031Z,98223.03
2022-12-15T18:22:15.583Z,98222.19
2022-12-15T18:24:42.379Z,98230.25
2022-12-15T18:27:20.471Z,98232.16
2022-12-15T18:29:47.254Z,98226.50
2022-12-15T18:32:14.256Z,98231.13
2022-12-15T18:34:41.667Z,98223.03
2022-12-15T18:37:28.201Z,98209.78
2022-12-15T18:39:57.250Z,98218.75
2022-12-15T18:42:29.527Z,98214.38
2022-12-15T18:44:56.765Z,98220.47
2022-12-15T18:47:25.026Z,98214.53
2022-12-15T18:49:51.927Z,98203.13
2022-12-15T18:52:20.635Z,98204.56
2022-12-15T18:54:48.431Z,98208.28
2022-12-15T18:57:29.064Z,98192.44
2022-12-15T19:00:24.660Z,98188.19
2022-12-15T19:02:52.934Z,98177.59
2022-12-15T19:05:29.149Z,98167.63
2022-12-15T19:08:10.177Z,98168.31
2022-12-15T19:10:51.865Z,98174.41
2022-12-15T19:13:20.842Z,98174.41
2022-12-15T19:15:47.622Z,98177.75
2022-12-15T19:18:37.367Z,98174.31
2022-12-15T19:21:36.118Z,98170.88
2022-12-15T19:24:04.106Z,98175.44
2022-12-15T19:26:30.857Z,98182.66
2022-12-15T19:28:57.897Z,98179.13
2022-12-15T19:31:24.969Z,98183.53
2022-12-15T19:33:52.143Z,98182.66
2022-12-15T19:36:20.832Z,98191.78
2022-12-15T19:38:48.032Z,98197.53
2022-12-15T19:41:15.603Z,98191.22
2022-12-15T19:43:42.779Z,98190.38
2022-12-15T19:46:17.726Z,98193.91
2022-12-15T19:48:44.830Z,98184.03
2022-12-15T19:51:13.266Z,98191.16
2022-12-15T19:53:40.836Z,98186.78
2022-12-15T19:56:11.605Z,98183.25
2022-12-15T19:58:38.779Z,98191.16
2022-12-15T20:01:07.685Z,98193.91
2022-12-15T20:03:36.229Z,98184.13
2022-12-15T20:06:03.651Z,98177.16
2022-12-15T20:08:35.323Z,98171.81
2022-12-15T20:11:02.076Z,98165.72
2022-12-15T20:13:29.909Z,98170.28
2022-12-15T20:15:56.903Z,98167.38
2022-12-15T20:18:23.967Z,98161.94
2022-12-15T20:20:50.787Z,98157.56
2022-12-15T20:23:26.745Z,98153.25
2022-12-15T20:25:54.121Z,98148.81
2022-12-15T20:28:27.293Z,98151.38
2022-12-15T20:30:54.703Z,98158.41
2022-12-15T20:33:22.174Z,98155.75
2022-12-15T20:35:49.514Z,98142.59
2022-12-15T20:38:21.780Z,98152.31
2022-12-15T20:40:48.564Z,98146.22
2022-12-15T20:43:17.340Z,98143.41
2022-12-15T20:45:45.278Z,98140.91
2022-12-15T20:48:13.688Z,98145.19
2022-12-15T20:50:45.644Z,98138.41
2022-12-15T20:53:17.460Z,98125.84
2022-12-15T20:55:44.562Z,98136.41
2022-12-15T20:58:11.787Z,98135.75
2022-12-15T21:00:38.788Z,98130.25
2022-12-15T21:03:30.417Z,98120.53
2022-12-15T21:05:57.922Z,98125.94
2022-12-15T21:08:27.418Z,98117.09
2022-12-15T21:10:54.685Z,98112.13
2022-12-15T21:13:24.652Z,98104.13
2022-12-15T21:15:51.597Z,98103.09
2022-12-15T21:21:06.485Z,98106.78
2022-12-15T21:23:36.379Z,98109.28
2022-12-15T21:26:05.443Z,98114.81
2022-12-15T21:28:32.950Z,98117.81
2022-12-15T21:31:00.086Z,98108.31
2022-12-15T21:33:27.503Z,98107.53
2022-12-15T21:35:54.278Z,98106.41
2022-12-15T21:38:21.786Z,98101.19
2022-12-15T21:40:48.507Z,98087.50
2022-12-15T21:43:15.512Z,98078.59
2022-12-15T21:45:42.470Z,98086.41
2022-12-15T21:48:37.338Z,98087.19
2022-12-15T21:51:04.411Z,98085.19
2022-12-15T21:53:31.469Z,98079.88
2022-12-15T21:56:00.193Z,98084.59
2022-12-15T21:58:27.477Z,98087.00
2022-12-15T22:00:54.274Z,98088.81
2022-12-15T22:03:21.685Z,98078.84
2022-12-15T22:05:48.502Z,98076.34
2022-12-15T22:08:19.692Z,98077.53
2022-12-15T22:10:47.085Z,98075.47
2022-12-15T22:13:23.314Z,98073.22
2022-12-15T22:15:53.351Z,98070.66
2022-12-15T22:18:22.605Z,98066.81
2022-12-15T22:20:50.012Z,98066.69
2022-12-15T22:23:18.427Z,98058.91
2022-12-15T22:25:46.149Z,98044.19
2022-12-15T22:28:26.506Z,98044.78
2022-12-15T22:30:54.571Z,98041.25
2022-12-15T22:33:23.891Z,98037.63
2022-12-15T22:35:51.600Z,98030.81
2022-12-15T22:38:19.098Z,98034.06
2022-12-15T22:40:48.016Z,98038.19
2022-12-15T22:43:28.316Z,98031.81
2022-12-15T22:45:55.355Z,98035.34
2022-12-15T22:48:23.940Z,98035.44
2022-12-15T22:50:50.807Z,98027.88
2022-12-15T22:53:19.199Z,98021.69
2022-12-15T22:55:46.852Z,98018.72
2022-12-15T22:58:18.032Z,98011.66
2022-12-15T23:00:44.828Z,97998.03
2022-12-15T23:03:11.916Z,98008.00
2022-12-15T23:05:40.023Z,98005.06
2022-12-15T23:08:07.140Z,98006.94
2022-12-15T23:10:52.480Z,97993.22
2022-12-15T23:13:21.815Z,97999.41
2022-12-15T23:16:07.989Z,97986.94
2022-12-15T23:18:35.692Z,97983.94
2022-12-15T23:21:02.591Z,97980.38
2022-12-15T23:23:32.165Z,97981.72
2022-12-15T23:25:59.131Z,97980.78
2022-12-15T23:28:26.215Z,97976.63
2022-12-15T23:30:53.593Z,97986.59
2022-12-15T23:33:21.188Z,97977.84
2022-12-15T23:35:48.440Z,97980.94
2022-12-15T23:38:15.913Z,97981.53
2022-12-15T23:40:51.047Z,97986.31
2022-12-15T23:43:20.530Z,97980.13
2022-12-15T23:45:59.474Z,97981.72
2022-12-15T23:48:29.936Z,97978.78
2022-12-15T23:51:12.452Z,97988.00
2022-12-15T23:53:39.783Z,97987.63
2022-12-15T23:56:08.815Z,97986.28
2022-12-15T23:58:36.580Z,98000.84
